Time;durP1;ratioP1;P1;durP2;ratioP2;P2;SDS_P1;SDS_P2;PMS_P1;PMS_P2;Temp;Humidity;BMP_temperature;BMP_pressure;BME280_temperature;BME280_humidity;BME280_pressure;Samples;Min_cycle;Max_cycle;Signal;HPM_P1;HPM_P2
2024/02/24 00:01:12;;;;;;;1.85;1.10;;;;;;;;;;5089847;28;20108;-63
2024/02/24 00:03:41;;;;;;;1.70;1.20;;;;;;;;;;5096028;28;20540;-62
2024/02/24 00:06:11;;;;;;;1.85;1.08;;;;;;;;;;5100172;28;20043;-62
2024/02/24 00:08:39;;;;;;;1.65;1.20;;;;;;;;;;5087316;28;20050;-62
2024/02/24 00:11:07;;;;;;;2.05;1.13;;;;;;;;;;5088740;28;20044;-61
2024/02/24 00:13:36;;;;;;;3.25;1.33;;;;;;;;;;5088166;28;20052;-63
2024/02/24 00:16:05;;;;;;;2.58;1.30;;;;;;;;;;5098510;28;20491;-64
2024/02/24 00:18:34;;;;;;;1.25;1.10;;;;;;;;;;5089080;28;20056;-62
2024/02/24 00:21:03;;;;;;;1.80;1.17;;;;;;;;;;5086115;28;20326;-61
2024/02/24 00:23:32;;;;;;;1.90;1.08;;;;;;;;;;5089373;28;20433;-63
2024/02/24 00:26:01;;;;;;;1.33;1.20;;;;;;;;;;5095053;28;20495;-62
2024/02/24 00:28:29;;;;;;;2.75;1.40;;;;;;;;;;5085842;28;20050;-66
2024/02/24 00:30:58;;;;;;;1.85;1.20;;;;;;;;;;5103045;28;20585;-62
2024/02/24 00:33:26;;;;;;;1.85;1.40;;;;;;;;;;5091754;28;20055;-62
2024/02/24 00:35:54;;;;;;;3.00;1.38;;;;;;;;;;5092809;28;20077;-68
2024/02/24 00:38:23;;;;;;;1.95;1.15;;;;;;;;;;5079902;28;20416;-63
2024/02/24 00:40:52;;;;;;;2.42;1.23;;;;;;;;;;5085622;28;20501;-63
2024/02/24 00:43:21;;;;;;;2.05;1.23;;;;;;;;;;5090826;28;20079;-64
2024/02/24 00:45:49;;;;;;;1.13;1.02;;;;;;;;;;5095938;28;20105;-63
2024/02/24 00:48:18;;;;;;;2.33;1.30;;;;;;;;;;5088609;28;20450;-62
2024/02/24 00:50:46;;;;;;;1.63;1.30;;;;;;;;;;5084738;28;20413;-62
2024/02/24 00:53:14;;;;;;;2.03;1.13;;;;;;;;;;5080297;28;20074;-66
2024/02/24 00:55:43;;;;;;;1.45;1.20;;;;;;;;;;5094432;28;20414;-62
2024/02/24 00:58:13;;;;;;;1.63;1.20;;;;;;;;;;5095002;28;20125;-64
2024/02/24 01:00:41;;;;;;;1.50;1.20;;;;;;;;;;5082360;28;20291;-62
2024/02/24 01:03:09;;;;;;;1.17;1.05;;;;;;;;;;5075642;28;20112;-62
2024/02/24 01:05:39;;;;;;;1.30;0.98;;;;;;;;;;5087544;28;20051;-62
2024/02/24 01:08:07;;;;;;;1.70;1.10;;;;;;;;;;5093502;28;20044;-62
2024/02/24 01:10:36;;;;;;;1.33;1.20;;;;;;;;;;5085989;28;20052;-61
2024/02/24 01:13:05;;;;;;;1.33;1.23;;;;;;;;;;5094668;28;20120;-62
2024/02/24 01:15:35;;;;;;;1.30;1.08;;;;;;;;;;5088430;28;20053;-62
2024/02/24 01:18:03;;;;;;;1.17;1.08;;;;;;;;;;5089379;28;20044;-61
2024/02/24 01:20:32;;;;;;;1.90;1.20;;;;;;;;;;5087877;28;20055;-61
2024/02/24 01:23:00;;;;;;;1.02;0.90;;;;;;;;;;5088897;28;20047;-62
2024/02/24 01:25:29;;;;;;;1.63;1.10;;;;;;;;;;5087320;28;20135;-62
2024/02/24 01:27:57;;;;;;;2.13;1.23;;;;;;;;;;5087405;28;20048;-66
2024/02/24 01:30:26;;;;;;;0.98;0.88;;;;;;;;;;5086850;28;20048;-61
2024/02/24 01:32:56;;;;;;;0.90;0.90;;;;;;;;;;5087075;28;20467;-61
2024/02/24 01:35:24;;;;;;;1.52;1.23;;;;;;;;;;5089340;28;20075;-62
2024/02/24 01:37:53;;;;;;;1.70;1.20;;;;;;;;;;5088759;28;20086;-62
2024/02/24 01:40:21;;;;;;;1.55;1.20;;;;;;;;;;5091141;28;20044;-62
2024/02/24 01:42:50;;;;;;;2.00;1.10;;;;;;;;;;5087826;28;20132;-61
2024/02/24 01:45:18;;;;;;;1.83;1.30;;;;;;;;;;5088655;28;20488;-61
2024/02/24 01:47:47;;;;;;;0.93;0.90;;;;;;;;;;5101243;28;20044;-62
2024/02/24 01:50:16;;;;;;;1.92;1.10;;;;;;;;;;5085994;28;20514;-62
2024/02/24 01:52:47;;;;;;;1.25;0.90;;;;;;;;;;5086080;28;20044;-62
2024/02/24 01:55:17;;;;;;;1.67;1.10;;;;;;;;;;5088831;28;20484;-62
2024/02/24 01:57:46;;;;;;;1.15;1.00;;;;;;;;;;5088905;28;20542;-61
2024/02/24 02:00:14;;;;;;;1.25;0.90;;;;;;;;;;5088010;28;20048;-63
2024/02/24 02:02:43;;;;;;;1.73;1.30;;;;;;;;;;5079941;28;20254;-63
2024/02/24 02:05:13;;;;;;;2.47;1.20;;;;;;;;;;5095017;28;20441;-63
2024/02/24 02:07:43;;;;;;;2.10;1.20;;;;;;;;;;5097020;28;20048;-62
2024/02/24 02:10:11;;;;;;;1.33;1.10;;;;;;;;;;5095875;28;20047;-62
2024/02/24 02:12:40;;;;;;;1.67;1.15;;;;;;;;;;5098062;28;20036;-62
2024/02/24 02:15:09;;;;;;;1.20;1.10;;;;;;;;;;5086725;28;20106;-63
2024/02/24 02:17:38;;;;;;;1.15;1.05;;;;;;;;;;5092468;28;20141;-62
2024/02/24 02:20:07;;;;;;;1.65;1.45;;;;;;;;;;5086517;28;20103;-62
2024/02/24 02:22:37;;;;;;;1.13;0.98;;;;;;;;;;5092452;28;20039;-62
2024/02/24 02:25:06;;;;;;;1.38;1.27;;;;;;;;;;5098667;28;20060;-63
2024/02/24 02:27:34;;;;;;;1.75;1.10;;;;;;;;;;5092984;28;20052;-63
2024/02/24 02:30:03;;;;;;;1.27;1.10;;;;;;;;;;5097241;28;20773;-63
2024/02/24 02:32:31;;;;;;;1.30;1.00;;;;;;;;;;5090681;28;20485;-61
2024/02/24 02:35:00;;;;;;;1.23;1.02;;;;;;;;;;5094315;28;20048;-62
2024/02/24 02:37:28;;;;;;;1.90;1.08;;;;;;;;;;5100684;28;20117;-62
2024/02/24 02:39:58;;;;;;;1.67;1.15;;;;;;;;;;5088983;28;20071;-64
2024/02/24 02:42:26;;;;;;;1.13;1.02;;;;;;;;;;5091386;28;20056;-64
2024/02/24 02:44:55;;;;;;;0.70;0.70;;;;;;;;;;5091543;28;20082;-62
2024/02/24 02:47:23;;;;;;;1.10;1.00;;;;;;;;;;5094298;28;20083;-63
2024/02/24 02:49:52;;;;;;;1.30;1.20;;;;;;;;;;5093543;28;20508;-62
2024/02/24 02:52:20;;;;;;;0.80;0.80;;;;;;;;;;5087263;28;20037;-62
2024/02/24 02:54:48;;;;;;;1.15;1.02;;;;;;;;;;5090278;28;20040;-63
2024/02/24 02:57:18;;;;;;;1.00;0.82;;;;;;;;;;5091811;28;20110;-61
2024/02/24 02:59:47;;;;;;;3.05;1.10;;;;;;;;;;5094123;28;20056;-61
2024/02/24 03:02:15;;;;;;;2.28;0.82;;;;;;;;;;5092468;28;20076;-63
2024/02/24 03:04:44;;;;;;;2.15;0.98;;;;;;;;;;5091360;28;20190;-61
2024/02/24 03:07:12;;;;;;;1.00;0.85;;;;;;;;;;5093647;28;20052;-63
2024/02/24 03:09:40;;;;;;;1.98;1.08;;;;;;;;;;5092756;28;20055;-62
2024/02/24 03:12:09;;;;;;;2.15;0.82;;;;;;;;;;5092023;28;20193;-66
2024/02/24 03:14:39;;;;;;;1.90;1.10;;;;;;;;;;5100929;28;20056;-63
2024/02/24 03:17:08;;;;;;;1.00;0.90;;;;;;;;;;5092198;28;20048;-64
2024/02/24 03:19:36;;;;;;;1.52;1.00;;;;;;;;;;5091945;28;20043;-62
2024/02/24 03:22:05;;;;;;;1.65;1.10;;;;;;;;;;5094447;28;20151;-63
2024/02/24 03:24:33;;;;;;;3.40;1.02;;;;;;;;;;5099360;28;20481;-61
2024/02/24 03:27:02;;;;;;;0.98;0.85;;;;;;;;;;5092126;28;20044;-61
2024/02/24 03:29:30;;;;;;;1.88;0.90;;;;;;;;;;5089381;28;20105;-61
2024/02/24 03:32:00;;;;;;;1.27;0.88;;;;;;;;;;5093332;28;20055;-61
2024/02/24 03:34:28;;;;;;;1.38;0.95;;;;;;;;;;5088131;28;20094;-62
2024/02/24 03:36:57;;;;;;;0.70;0.70;;;;;;;;;;5096933;28;20079;-61
2024/02/24 03:39:25;;;;;;;1.05;0.98;;;;;;;;;;5087855;28;20097;-61
2024/02/24 03:41:54;;;;;;;0.80;0.80;;;;;;;;;;5089827;28;20040;-63
2024/02/24 03:44:22;;;;;;;1.58;0.80;;;;;;;;;;5089918;28;20105;-63
2024/02/24 03:46:51;;;;;;;1.15;0.80;;;;;;;;;;5091943;28;20044;-61
2024/02/24 03:49:20;;;;;;;2.67;0.90;;;;;;;;;;5090082;28;20389;-61
2024/02/24 03:51:49;;;;;;;0.80;0.80;;;;;;;;;;5089776;28;20048;-61
2024/02/24 03:54:17;;;;;;;1.42;1.00;;;;;;;;;;5102407;28;20048;-60
2024/02/24 03:56:49;;;;;;;1.30;0.80;;;;;;;;;;5101111;28;20055;-60
2024/02/24 03:59:18;;;;;;;0.80;0.80;;;;;;;;;;5093779;28;20526;-62
2024/02/24 04:01:46;;;;;;;1.00;0.90;;;;;;;;;;5095649;28;20480;-63
2024/02/24 04:04:15;;;;;;;1.02;0.90;;;;;;;;;;5091565;28;20048;-61
2024/02/24 04:06:45;;;;;;;1.67;1.10;;;;;;;;;;5087987;28;20493;-62
2024/02/24 04:09:14;;;;;;;2.25;1.13;;;;;;;;;;5082429;28;20370;-61
2024/02/24 04:11:42;;;;;;;2.97;1.55;;;;;;;;;;5096463;28;20426;-62
2024/02/24 04:14:11;;;;;;;2.45;1.70;;;;;;;;;;5099226;28;20044;-61
2024/02/24 04:16:39;;;;;;;1.38;0.90;;;;;;;;;;5091476;28;20072;-61
2024/02/24 04:19:08;;;;;;;2.00;1.40;;;;;;;;;;5093380;28;20093;-63
2024/02/24 04:21:36;;;;;;;1.70;0.90;;;;;;;;;;5090855;28;20143;-61
2024/02/24 04:24:07;;;;;;;1.88;1.10;;;;;;;;;;5088246;28;20056;-61
2024/02/24 04:26:35;;;;;;;0.90;0.70;;;;;;;;;;5089399;28;20123;-62
2024/02/24 04:29:03;;;;;;;0.93;0.85;;;;;;;;;;5089031;28;20044;-62
2024/02/24 04:31:32;;;;;;;0.70;0.70;;;;;;;;;;5093840;28;20044;-63
2024/02/24 04:34:00;;;;;;;1.15;0.80;;;;;;;;;;5094631;28;20124;-63
2024/02/24 04:36:29;;;;;;;1.35;1.05;;;;;;;;;;5095586;28;20522;-61
2024/02/24 04:38:57;;;;;;;0.60;0.60;;;;;;;;;;5088737;28;20106;-61
2024/02/24 04:41:27;;;;;;;0.70;0.70;;;;;;;;;;5089694;28;20084;-62
2024/02/24 04:43:55;;;;;;;1.35;0.77;;;;;;;;;;5088698;28;20054;-63
2024/02/24 04:46:24;;;;;;;0.70;0.70;;;;;;;;;;5089202;28;20131;-63
2024/02/24 04:48:52;;;;;;;0.70;0.70;;;;;;;;;;5087007;28;20044;-61
2024/02/24 04:51:21;;;;;;;0.70;0.70;;;;;;;;;;5092453;28;20171;-60
2024/02/24 04:53:49;;;;;;;0.88;0.88;;;;;;;;;;5090218;28;21224;-61
2024/02/24 04:56:18;;;;;;;0.88;0.88;;;;;;;;;;5093223;28;20488;-61
2024/02/24 04:58:48;;;;;;;0.80;0.70;;;;;;;;;;5090617;28;20136;-63
2024/02/24 05:01:17;;;;;;;1.10;1.00;;;;;;;;;;5084810;28;20058;-64
2024/02/24 05:03:46;;;;;;;1.35;1.10;;;;;;;;;;5088168;28;20481;-61
2024/02/24 05:06:14;;;;;;;0.70;0.70;;;;;;;;;;5090394;28;20401;-61
2024/02/24 05:08:43;;;;;;;1.25;0.80;;;;;;;;;;5088783;28;20048;-61
2024/02/24 05:11:12;;;;;;;0.60;0.60;;;;;;;;;;5085729;28;20051;-61
2024/02/24 05:13:40;;;;;;;3.33;0.80;;;;;;;;;;5092041;28;20155;-61
2024/02/24 05:16:10;;;;;;;1.08;0.90;;;;;;;;;;5092180;28;20044;-62
2024/02/24 05:18:39;;;;;;;0.70;0.70;;;;;;;;;;5085992;28;20489;-61
2024/02/24 05:21:07;;;;;;;0.70;0.70;;;;;;;;;;5088744;28;20056;-61
2024/02/24 05:23:36;;;;;;;0.70;0.70;;;;;;;;;;5094865;28;20096;-62
2024/02/24 05:26:04;;;;;;;0.90;0.80;;;;;;;;;;5093826;28;20057;-62
2024/02/24 05:28:33;;;;;;;1.30;0.70;;;;;;;;;;5089550;28;20101;-61
2024/02/24 05:31:01;;;;;;;2.75;0.70;;;;;;;;;;5088371;28;20554;-63
2024/02/24 05:33:31;;;;;;;0.55;0.55;;;;;;;;;;5088202;28;20059;-62
2024/02/24 05:35:59;;;;;;;0.70;0.70;;;;;;;;;;5088594;28;20155;-62
2024/02/24 05:38:28;;;;;;;0.70;0.70;;;;;;;;;;5089124;28;20044;-63
2024/02/24 05:40:56;;;;;;;0.88;0.80;;;;;;;;;;5090172;28;20143;-62
2024/02/24 05:43:24;;;;;;;3.75;1.08;;;;;;;;;;5091190;28;20454;-61
2024/02/24 05:45:54;;;;;;;4.93;1.10;;;;;;;;;;5093771;28;20052;-61
2024/02/24 05:48:23;;;;;;;0.88;0.88;;;;;;;;;;5090411;28;20048;-63
2024/02/24 05:50:53;;;;;;;0.65;0.65;;;;;;;;;;5085041;28;20048;-62
2024/02/24 05:53:22;;;;;;;0.80;0.80;;;;;;;;;;5090003;28;20044;-60
2024/02/24 05:55:51;;;;;;;0.70;0.70;;;;;;;;;;5090820;28;20409;-61
2024/02/24 05:58:21;;;;;;;0.77;0.77;;;;;;;;;;5087677;28;20044;-61
2024/02/24 06:00:49;;;;;;;0.88;0.88;;;;;;;;;;5084953;28;20044;-62
2024/02/24 06:03:18;;;;;;;0.88;0.88;;;;;;;;;;5086976;28;20131;-61
2024/02/24 06:05:46;;;;;;;1.08;0.77;;;;;;;;;;5089954;28;20505;-62
2024/02/24 06:08:16;;;;;;;0.88;0.85;;;;;;;;;;5089689;28;20522;-60
2024/02/24 06:10:45;;;;;;;2.30;0.90;;;;;;;;;;5087354;28;20524;-61
2024/02/24 06:13:13;;;;;;;0.80;0.80;;;;;;;;;;5091298;28;20055;-61
2024/02/24 06:15:41;;;;;;;0.60;0.60;;;;;;;;;;5082792;28;20083;-61
2024/02/24 06:18:10;;;;;;;0.80;0.80;;;;;;;;;;5089348;28;20040;-61
2024/02/24 06:20:38;;;;;;;2.10;0.80;;;;;;;;;;5086479;28;20127;-60
2024/02/24 06:23:07;;;;;;;0.73;0.73;;;;;;;;;;5087385;28;20059;-61
2024/02/24 06:25:37;;;;;;;0.75;0.75;;;;;;;;;;5089828;28;20040;-64
2024/02/24 06:28:10;;;;;;;0.70;0.70;;;;;;;;;;5086180;28;20044;-61
2024/02/24 06:30:38;;;;;;;0.85;0.85;;;;;;;;;;5087716;28;20048;-61
2024/02/24 06:33:07;;;;;;;2.55;0.80;;;;;;;;;;5086362;28;20448;-61
2024/02/24 06:35:36;;;;;;;0.60;0.60;;;;;;;;;;5085466;28;20050;-63
2024/02/24 06:38:05;;;;;;;0.60;0.60;;;;;;;;;;5092892;28;20044;-61
2024/02/24 06:40:33;;;;;;;1.52;0.80;;;;;;;;;;5086175;28;20077;-61
2024/02/24 06:43:14;;;;;;;1.38;1.00;;;;;;;;;;5086113;28;20048;-63
2024/02/24 06:45:43;;;;;;;0.70;0.70;;;;;;;;;;5090408;28;20089;-60
2024/02/24 06:48:11;;;;;;;0.65;0.65;;;;;;;;;;5088072;28;20048;-65
2024/02/24 06:50:39;;;;;;;0.98;0.70;;;;;;;;;;5087664;28;20137;-62
2024/02/24 06:53:08;;;;;;;1.83;0.80;;;;;;;;;;5085550;28;20295;-62
2024/02/24 06:55:36;;;;;;;0.85;0.80;;;;;;;;;;5091580;28;21243;-63
2024/02/24 06:58:05;;;;;;;0.82;0.82;;;;;;;;;;5087545;28;20093;-60
2024/02/24 07:00:35;;;;;;;0.80;0.70;;;;;;;;;;5091266;28;20485;-61
2024/02/24 07:03:03;;;;;;;1.02;0.90;;;;;;;;;;5086378;28;20136;-61
2024/02/24 07:05:32;;;;;;;0.77;0.77;;;;;;;;;;5097922;28;20039;-62
2024/02/24 07:08:01;;;;;;;0.70;0.70;;;;;;;;;;5086552;28;20056;-61
2024/02/24 07:10:29;;;;;;;0.80;0.80;;;;;;;;;;5077064;28;20048;-59
2024/02/24 07:12:58;;;;;;;1.35;0.95;;;;;;;;;;5071925;28;20048;-62
2024/02/24 07:15:26;;;;;;;0.73;0.73;;;;;;;;;;5071360;28;20049;-62
2024/02/24 07:17:56;;;;;;;0.60;0.60;;;;;;;;;;5070390;28;20048;-63
2024/02/24 07:20:24;;;;;;;0.80;0.80;;;;;;;;;;5074929;28;20040;-61
2024/02/24 07:22:53;;;;;;;0.80;0.80;;;;;;;;;;5075341;28;20053;-61
2024/02/24 07:25:21;;;;;;;2.33;0.90;;;;;;;;;;5078408;28;20110;-63
2024/02/24 07:27:49;;;;;;;2.15;0.70;;;;;;;;;;5078501;28;20090;-62
2024/02/24 07:30:18;;;;;;;1.40;0.90;;;;;;;;;;5066641;28;20552;-62
2024/02/24 07:32:46;;;;;;;0.70;0.70;;;;;;;;;;5071186;28;20044;-61
2024/02/24 07:35:16;;;;;;;0.70;0.70;;;;;;;;;;5077345;28;20465;-61
2024/02/24 07:37:45;;;;;;;2.15;0.73;;;;;;;;;;5084526;28;20358;-62
2024/02/24 07:40:13;;;;;;;1.23;0.90;;;;;;;;;;5079708;28;20074;-64
2024/02/24 07:42:42;;;;;;;0.85;0.85;;;;;;;;;;5070692;28;20053;-62
2024/02/24 07:45:10;;;;;;;2.47;0.73;;;;;;;;;;5071211;28;20060;-63
2024/02/24 07:47:39;;;;;;;0.70;0.70;;;;;;;;;;5070840;28;20040;-61
2024/02/24 07:50:08;;;;;;;0.70;0.70;;;;;;;;;;5069894;28;20045;-62
2024/02/24 07:52:38;;;;;;;0.80;0.70;;;;;;;;;;5069290;28;20397;-63
2024/02/24 07:55:07;;;;;;;0.70;0.70;;;;;;;;;;5069929;28;20063;-64
2024/02/24 07:57:35;;;;;;;0.80;0.80;;;;;;;;;;5084329;28;20453;-64
2024/02/24 08:00:04;;;;;;;0.95;0.80;;;;;;;;;;5069818;28;20067;-62
2024/02/24 08:02:33;;;;;;;1.00;0.80;;;;;;;;;;5069875;28;20049;-62
2024/02/24 08:05:01;;;;;;;1.02;0.90;;;;;;;;;;5074242;28;20056;-62
2024/02/24 08:07:30;;;;;;;1.00;0.90;;;;;;;;;;5077894;28;20053;-64
2024/02/24 08:10:00;;;;;;;1.58;0.80;;;;;;;;;;5073523;28;20048;-62
2024/02/24 08:12:28;;;;;;;0.70;0.70;;;;;;;;;;5075891;28;20047;-62
2024/02/24 08:14:57;;;;;;;0.77;0.70;;;;;;;;;;5074059;28;20123;-63
2024/02/24 08:17:26;;;;;;;1.92;0.93;;;;;;;;;;5072895;28;20139;-62
2024/02/24 08:19:54;;;;;;;1.25;0.98;;;;;;;;;;5068780;28;20268;-65
2024/02/24 08:22:22;;;;;;;2.03;1.20;;;;;;;;;;5066160;28;20483;-62
2024/02/24 08:24:51;;;;;;;2.83;0.70;;;;;;;;;;5067410;28;20140;-63
2024/02/24 08:27:21;;;;;;;1.23;1.00;;;;;;;;;;5072525;28;20044;-62
2024/02/24 08:29:49;;;;;;;1.35;1.00;;;;;;;;;;5070176;28;20052;-63
2024/02/24 08:32:18;;;;;;;0.70;0.70;;;;;;;;;;5065107;28;20052;-63
2024/02/24 08:34:47;;;;;;;2.05;0.73;;;;;;;;;;5068554;28;20072;-66
2024/02/24 08:37:15;;;;;;;1.17;0.60;;;;;;;;;;5068681;28;20045;-67
2024/02/24 08:39:44;;;;;;;0.50;0.50;;;;;;;;;;5065943;28;20101;-62
2024/02/24 08:42:12;;;;;;;0.50;0.50;;;;;;;;;;5062306;28;20056;-63
2024/02/24 08:44:42;;;;;;;0.63;0.63;;;;;;;;;;5069228;28;20677;-66
2024/02/24 08:47:10;;;;;;;0.60;0.60;;;;;;;;;;5070854;28;20389;-63
2024/02/24 08:49:39;;;;;;;0.98;0.75;;;;;;;;;;5072393;28;20051;-62
2024/02/24 08:52:07;;;;;;;0.68;0.68;;;;;;;;;;5062871;28;20063;-65
2024/02/24 08:54:38;;;;;;;1.85;0.70;;;;;;;;;;5072720;28;20063;-63
2024/02/24 08:57:07;;;;;;;0.75;0.52;;;;;;;;;;5066154;28;20516;-65
2024/02/24 08:59:35;;;;;;;2.60;0.50;;;;;;;;;;5068333;28;20497;-63
2024/02/24 09:02:05;;;;;;;0.82;0.77;;;;;;;;;;5067115;28;20052;-66
2024/02/24 09:04:34;;;;;;;0.93;0.82;;;;;;;;;;5070905;28;20056;-62
2024/02/24 09:07:02;;;;;;;0.60;0.60;;;;;;;;;;5070313;28;20056;-62
2024/02/24 09:09:31;;;;;;;1.08;0.60;;;;;;;;;;5065247;28;20151;-62
2024/02/24 09:11:59;;;;;;;0.70;0.60;;;;;;;;;;5071316;28;20056;-64
2024/02/24 09:14:28;;;;;;;0.50;0.50;;;;;;;;;;5077835;28;20048;-62
2024/02/24 09:16:57;;;;;;;1.33;0.70;;;;;;;;;;5065375;28;20054;-64
2024/02/24 09:19:27;;;;;;;0.82;0.65;;;;;;;;;;5069310;28;20040;-64
2024/02/24 09:21:55;;;;;;;1.02;0.60;;;;;;;;;;5070150;28;20127;-62
2024/02/24 09:24:24;;;;;;;0.60;0.57;;;;;;;;;;5076437;28;20105;-63
2024/02/24 09:26:52;;;;;;;0.70;0.60;;;;;;;;;;5076398;28;20055;-60
2024/02/24 09:29:21;;;;;;;0.60;0.60;;;;;;;;;;5067329;28;20489;-61
2024/02/24 09:31:50;;;;;;;0.50;0.50;;;;;;;;;;5067245;28;20052;-61
2024/02/24 09:34:19;;;;;;;0.50;0.50;;;;;;;;;;5067885;28;20079;-63
2024/02/24 09:36:49;;;;;;;0.43;0.43;;;;;;;;;;5066342;28;20510;-61
2024/02/24 09:39:18;;;;;;;0.70;0.63;;;;;;;;;;5066980;28;20036;-60
2024/02/24 09:41:46;;;;;;;0.50;0.50;;;;;;;;;;5067293;28;20131;-60
2024/02/24 09:44:15;;;;;;;0.52;0.50;;;;;;;;;;5068069;28;20052;-61
2024/02/24 09:46:44;;;;;;;0.40;0.40;;;;;;;;;;5067225;28;20530;-60
2024/02/24 09:49:13;;;;;;;0.60;0.50;;;;;;;;;;5068276;28;20560;-61
2024/02/24 09:51:45;;;;;;;1.35;0.50;;;;;;;;;;5062374;28;20037;-61
2024/02/24 09:54:16;;;;;;;0.50;0.50;;;;;;;;;;5068210;28;20405;-60
2024/02/24 09:56:46;;;;;;;0.60;0.60;;;;;;;;;;5068042;28;20083;-61
2024/02/24 09:59:14;;;;;;;0.50;0.50;;;;;;;;;;5063097;28;20113;-61
2024/02/24 10:01:47;;;;;;;0.88;0.77;;;;;;;;;;5068035;28;20043;-60
2024/02/24 10:04:15;;;;;;;0.50;0.50;;;;;;;;;;5068717;28;20060;-60
2024/02/24 10:06:44;;;;;;;0.73;0.70;;;;;;;;;;5080621;28;20117;-62
2024/02/24 10:09:13;;;;;;;0.55;0.50;;;;;;;;;;5073990;28;20045;-61
2024/02/24 10:11:43;;;;;;;0.65;0.43;;;;;;;;;;5080040;28;20055;-61
2024/02/24 10:14:11;;;;;;;0.50;0.50;;;;;;;;;;5071659;28;20053;-61
2024/02/24 10:16:40;;;;;;;1.85;0.60;;;;;;;;;;5072317;28;20066;-60
2024/02/24 10:19:08;;;;;;;0.40;0.40;;;;;;;;;;5068497;28;20048;-61
2024/02/24 10:21:38;;;;;;;0.60;0.47;;;;;;;;;;5068300;28;20052;-60
2024/02/24 10:24:06;;;;;;;0.50;0.50;;;;;;;;;;5070615;28;20171;-61
2024/02/24 10:26:35;;;;;;;0.47;0.40;;;;;;;;;;5078850;28;20094;-60
2024/02/24 10:29:07;;;;;;;0.40;0.40;;;;;;;;;;5083413;28;20040;-60
2024/02/24 10:31:36;;;;;;;0.93;0.60;;;;;;;;;;5089062;28;20056;-62
2024/02/24 10:34:05;;;;;;;0.60;0.60;;;;;;;;;;5079855;28;20267;-60
2024/02/24 10:36:34;;;;;;;0.40;0.40;;;;;;;;;;5076137;28;20048;-61
2024/02/24 10:39:04;;;;;;;0.70;0.50;;;;;;;;;;5072542;28;20090;-62
2024/02/24 10:41:33;;;;;;;0.60;0.60;;;;;;;;;;5075410;28;20044;-58
2024/02/24 10:44:02;;;;;;;1.33;0.52;;;;;;;;;;5071829;28;20132;-61
2024/02/24 10:46:48;;;;;;;1.38;0.60;;;;;;;;;;5073153;28;20102;-60
2024/02/24 10:49:17;;;;;;;0.88;0.70;;;;;;;;;;5085210;28;20135;-62
2024/02/24 10:51:49;;;;;;;0.43;0.43;;;;;;;;;;5076608;28;20465;-61
2024/02/24 10:54:20;;;;;;;0.50;0.50;;;;;;;;;;5082367;28;20049;-61
2024/02/24 10:56:50;;;;;;;0.57;0.50;;;;;;;;;;5074439;28;20052;-61
2024/02/24 10:59:27;;;;;;;0.60;0.50;;;;;;;;;;5079123;28;20076;-61
2024/02/24 11:02:01;;;;;;;0.63;0.60;;;;;;;;;;5073734;28;20074;-59
2024/02/24 11:04:29;;;;;;;0.50;0.50;;;;;;;;;;5081130;28;20056;-60
2024/02/24 11:07:00;;;;;;;0.60;0.60;;;;;;;;;;5083217;28;20535;-62
2024/02/24 11:09:31;;;;;;;0.40;0.40;;;;;;;;;;5087972;28;20311;-65
2024/02/24 11:12:10;;;;;;;2.50;0.60;;;;;;;;;;5096306;28;20501;-64
2024/02/24 11:14:39;;;;;;;0.93;0.60;;;;;;;;;;5090917;28;20127;-61
2024/02/24 11:17:10;;;;;;;0.50;0.50;;;;;;;;;;5090566;28;20054;-60
2024/02/24 11:19:43;;;;;;;1.33;0.63;;;;;;;;;;5090172;28;20056;-61
2024/02/24 11:22:19;;;;;;;0.77;0.77;;;;;;;;;;5090301;28;20075;-61
2024/02/24 11:24:59;;;;;;;1.20;0.50;;;;;;;;;;5090628;28;20052;-60
2024/02/24 11:27:31;;;;;;;2.15;0.50;;;;;;;;;;5091230;28;20105;-60
2024/02/24 11:29:59;;;;;;;0.73;0.73;;;;;;;;;;5090272;28;20050;-60
2024/02/24 11:32:29;;;;;;;0.85;0.50;;;;;;;;;;5090633;28;20102;-61
2024/02/24 11:34:58;;;;;;;1.05;0.50;;;;;;;;;;5090190;28;20044;-60
2024/02/24 11:37:27;;;;;;;0.73;0.60;;;;;;;;;;5092346;28;20072;-61
2024/02/24 11:39:56;;;;;;;0.60;0.60;;;;;;;;;;5090570;28;20076;-62
2024/02/24 11:42:26;;;;;;;0.40;0.40;;;;;;;;;;5090298;28;20044;-61
2024/02/24 11:44:55;;;;;;;0.82;0.70;;;;;;;;;;5087797;28;20130;-63
2024/02/24 11:47:24;;;;;;;0.52;0.52;;;;;;;;;;5084599;28;20496;-60
2024/02/24 11:49:55;;;;;;;1.88;0.60;;;;;;;;;;5087338;28;20075;-61
2024/02/24 11:52:24;;;;;;;1.38;0.70;;;;;;;;;;5088230;28;20508;-60
2024/02/24 11:54:52;;;;;;;0.88;0.70;;;;;;;;;;5088819;28;20056;-61
2024/02/24 11:57:23;;;;;;;0.60;0.50;;;;;;;;;;5087981;28;20441;-62
2024/02/24 11:59:52;;;;;;;0.60;0.60;;;;;;;;;;5086793;28;20040;-60
2024/02/24 12:02:21;;;;;;;0.77;0.60;;;;;;;;;;5086489;28;20040;-61
2024/02/24 12:04:49;;;;;;;0.95;0.60;;;;;;;;;;5088641;28;20052;-61
2024/02/24 12:07:19;;;;;;;0.50;0.50;;;;;;;;;;5086923;28;20433;-61
2024/02/24 12:09:48;;;;;;;1.40;0.60;;;;;;;;;;5087436;28;20314;-61
2024/02/24 12:12:20;;;;;;;0.70;0.57;;;;;;;;;;5091325;28;20484;-60
2024/02/24 12:14:48;;;;;;;1.38;0.70;;;;;;;;;;5088283;28;20063;-64
2024/02/24 12:17:16;;;;;;;0.88;0.70;;;;;;;;;;5087088;28;20044;-60
2024/02/24 12:19:45;;;;;;;1.00;0.50;;;;;;;;;;5088565;28;20050;-60
2024/02/24 12:22:14;;;;;;;0.82;0.57;;;;;;;;;;5085407;28;20045;-60
2024/02/24 12:24:44;;;;;;;1.00;0.60;;;;;;;;;;5084716;28;20052;-61
2024/02/24 12:27:12;;;;;;;0.60;0.50;;;;;;;;;;5088808;28;20075;-61
2024/02/24 12:29:40;;;;;;;0.47;0.47;;;;;;;;;;5086549;28;20101;-63
2024/02/24 12:32:09;;;;;;;0.82;0.60;;;;;;;;;;5087817;28;20084;-62
2024/02/24 12:34:37;;;;;;;0.43;0.43;;;;;;;;;;5088036;28;20500;-60
2024/02/24 12:37:08;;;;;;;1.08;0.60;;;;;;;;;;5089133;28;20512;-60
2024/02/24 12:39:40;;;;;;;1.23;0.60;;;;;;;;;;5086924;28;20072;-61
2024/02/24 12:42:10;;;;;;;0.52;0.50;;;;;;;;;;5085434;28;20044;-61
2024/02/24 12:44:39;;;;;;;1.58;0.60;;;;;;;;;;5086575;28;20459;-59
2024/02/24 12:47:07;;;;;;;0.43;0.43;;;;;;;;;;5086980;28;20551;-59
2024/02/24 12:49:36;;;;;;;0.70;0.50;;;;;;;;;;5090894;28;20071;-59
2024/02/24 12:52:05;;;;;;;0.40;0.40;;;;;;;;;;5090626;28;20523;-60
2024/02/24 12:54:34;;;;;;;0.60;0.50;;;;;;;;;;5088780;28;20055;-61
2024/02/24 12:57:02;;;;;;;0.38;0.38;;;;;;;;;;5086299;28;20105;-60
2024/02/24 12:59:32;;;;;;;0.50;0.50;;;;;;;;;;5094002;28;20060;-61
2024/02/24 13:02:01;;;;;;;0.60;0.50;;;;;;;;;;5093256;28;20657;-59
2024/02/24 13:04:29;;;;;;;0.85;0.50;;;;;;;;;;5088933;28;20040;-61
2024/02/24 13:06:58;;;;;;;0.60;0.60;;;;;;;;;;5086103;28;20382;-62
2024/02/24 13:09:26;;;;;;;0.40;0.40;;;;;;;;;;5074978;28;20086;-61
2024/02/24 13:11:56;;;;;;;0.60;0.60;;;;;;;;;;5067041;28;20056;-63
2024/02/24 13:14:24;;;;;;;0.50;0.50;;;;;;;;;;5070110;28;20052;-61
2024/02/24 13:16:54;;;;;;;0.55;0.47;;;;;;;;;;5070311;28;20434;-60
2024/02/24 13:19:23;;;;;;;0.82;0.52;;;;;;;;;;5067835;28;20091;-59
2024/02/24 13:21:51;;;;;;;1.50;0.73;;;;;;;;;;5068290;28;20045;-60
2024/02/24 13:24:20;;;;;;;1.38;0.60;;;;;;;;;;5070535;28;20057;-60
2024/02/24 13:26:48;;;;;;;0.70;0.60;;;;;;;;;;5061045;28;20044;-60
2024/02/24 13:29:17;;;;;;;0.75;0.60;;;;;;;;;;5067010;28;20044;-60
2024/02/24 13:31:46;;;;;;;0.88;0.70;;;;;;;;;;5073753;28;20206;-60
2024/02/24 13:34:16;;;;;;;1.45;0.70;;;;;;;;;;5068262;28;20636;-60
2024/02/24 13:36:44;;;;;;;0.88;0.43;;;;;;;;;;5068583;28;20043;-60
2024/02/24 13:39:13;;;;;;;0.60;0.60;;;;;;;;;;5080988;28;20056;-61
2024/02/24 13:41:41;;;;;;;0.90;0.60;;;;;;;;;;5071760;28;20119;-61
2024/02/24 13:44:12;;;;;;;0.50;0.50;;;;;;;;;;5071488;28;20480;-60
2024/02/24 13:46:42;;;;;;;2.85;0.65;;;;;;;;;;5072266;28;20056;-61
2024/02/24 13:49:11;;;;;;;0.73;0.60;;;;;;;;;;5077398;28;20044;-61
2024/02/24 13:51:42;;;;;;;0.40;0.40;;;;;;;;;;5069209;28;20044;-60
2024/02/24 13:54:10;;;;;;;2.90;0.60;;;;;;;;;;5069568;28;20060;-61
2024/02/24 13:56:39;;;;;;;1.13;0.73;;;;;;;;;;5066953;28;20041;-61
2024/02/24 13:59:07;;;;;;;0.90;0.50;;;;;;;;;;5060964;28;20063;-61
2024/02/24 14:01:36;;;;;;;0.63;0.50;;;;;;;;;;5071479;28;20473;-61
2024/02/24 14:04:04;;;;;;;1.30;0.60;;;;;;;;;;5075402;28;20105;-60
2024/02/24 14:06:34;;;;;;;0.60;0.52;;;;;;;;;;5079451;28;20063;-60
2024/02/24 14:09:06;;;;;;;1.40;0.60;;;;;;;;;;5094172;28;20437;-60
2024/02/24 14:11:35;;;;;;;0.60;0.60;;;;;;;;;;5088624;28;20055;-63
2024/02/24 14:14:04;;;;;;;0.63;0.50;;;;;;;;;;5089491;28;20040;-62
2024/02/24 14:16:33;;;;;;;0.50;0.50;;;;;;;;;;5091605;28;20044;-60
2024/02/24 14:19:02;;;;;;;1.00;0.60;;;;;;;;;;5096264;28;20093;-60
2024/02/24 14:21:31;;;;;;;0.88;0.70;;;;;;;;;;5092508;28;20497;-61
2024/02/24 14:24:00;;;;;;;1.08;0.63;;;;;;;;;;5093523;28;20514;-62
2024/02/24 14:26:30;;;;;;;0.52;0.52;;;;;;;;;;5094587;28;20465;-63
2024/02/24 14:28:58;;;;;;;0.50;0.50;;;;;;;;;;5085780;28;20149;-60
2024/02/24 14:31:30;;;;;;;0.93;0.60;;;;;;;;;;5092623;28;20044;-60
2024/02/24 14:33:59;;;;;;;0.52;0.50;;;;;;;;;;5089816;28;20550;-61
2024/02/24 14:36:29;;;;;;;0.55;0.55;;;;;;;;;;5095516;28;20059;-61
2024/02/24 14:38:59;;;;;;;0.50;0.40;;;;;;;;;;5099348;28;20089;-60
2024/02/24 14:41:29;;;;;;;0.50;0.50;;;;;;;;;;5092754;28;20435;-65
2024/02/24 14:43:58;;;;;;;0.88;0.50;;;;;;;;;;5094826;28;20097;-66
2024/02/24 14:46:26;;;;;;;0.47;0.47;;;;;;;;;;5092357;28;20452;-66
2024/02/24 14:48:54;;;;;;;0.90;0.52;;;;;;;;;;5094116;28;20055;-65
2024/02/24 14:51:23;;;;;;;0.65;0.60;;;;;;;;;;5092639;28;20051;-67
2024/02/24 14:53:52;;;;;;;1.05;0.63;;;;;;;;;;5094829;28;20048;-65